This is the latest recevied weather packets stored in our database for station/object KN6ETB-1. If no packets are shown the sender has not sent any weather packets the latest 10 day(s).
| Time | Temp. | Humidity | Pressure | Rain* | Wind** | Luminosity | Snow |
|---|---|---|---|---|---|---|---|
| 1778109123 | 25° C | 54% | 1015.1 hPa | 0 mm | - | 485 W/m² | - |
| 1778108819 | 25° C | 56% | 1015.4 hPa | 0 mm | - | 498 W/m² | - |
| 1778108516 | 23.89° C | 54% | 1015.4 hPa | 0 mm | - | 516 W/m² | - |
| 1778108212 | 24.44° C | 54% | 1015.6 hPa | 0 mm | - | 547 W/m² | - |
| 1778107909 | 24.44° C | 56% | 1015.7 hPa | 0 mm | - | 531 W/m² | - |
| 1778107606 | 24.44° C | 57% | 1015.5 hPa | 0 mm | - | 338 W/m² | - |
| 1778107302 | 23.89° C | 57% | 1015.7 hPa | 0 mm | - | 558 W/m² | - |
| 1778106999 | 25° C | 55% | 1015.8 hPa | 0 mm | - | 581 W/m² | - |
| 1778106694 | 24.44° C | 56% | 1016 hPa | 0 mm | - | 571 W/m² | - |
| 1778106392 | 24.44° C | 55% | 1016 hPa | 0 mm | - | 461 W/m² | - |
| 1778106088 | 24.44° C | 56% | 1016.1 hPa | 0 mm | - | 163 W/m² | - |
| 1778105786 | 23.89° C | 58% | 1016.2 hPa | 0 mm | - | 471 W/m² | - |
| 1778105484 | 25° C | 55% | 1016.2 hPa | 0 mm | - | 594 W/m² | - |
| 1778105180 | 23.89° C | 56% | 1016.1 hPa | 0 mm | - | 604 W/m² | - |
| 1778104875 | 22.78° C | 59% | 1016.3 hPa | 0 mm | - | 614 W/m² | - |
| 1778104572 | 24.44° C | 56% | 1016.6 hPa | 0 mm | - | 629 W/m² | - |
| 1778104268 | 23.89° C | 56% | 1016.7 hPa | 0 mm | - | 661 W/m² | - |
| 1778103965 | 23.89° C | 57% | 1016.6 hPa | 0 mm | - | 620 W/m² | - |
| 1778103662 | 23.89° C | 57% | 1016.5 hPa | 0 mm | - | 599 W/m² | - |
| 1778103360 | 23.33° C | 58% | 1016.5 hPa | 0 mm | - | 585 W/m² | - |
| 1778103057 | 22.78° C | 59% | 1016.6 hPa | 0 mm | - | 327 W/m² | - |
| 1778102754 | 22.78° C | 58% | 1016.7 hPa | 0 mm | - | 662 W/m² | - |
| 1778102449 | 22.78° C | 58% | 1017 hPa | 0 mm | - | 705 W/m² | - |
| 1778102145 | 23.33° C | 57% | 1017 hPa | 0 mm | - | 172 W/m² | - |
| 1778101842 | 23.89° C | 59% | 1016.8 hPa | 0 mm | - | 202 W/m² | - |
* Rain latest hour (hover to see other rain measurements)
** Current wind speed in m/s (hover to see current wind gust speed)